createdAt,value
2023-05-25T00:01:26.454Z,19.23
2023-05-25T00:05:31.257Z,18.83
2023-05-25T00:07:33.195Z,18.63
2023-05-25T00:09:35.667Z,21.05
2023-05-25T00:11:37.516Z,20.58
2023-05-25T00:13:39.769Z,19.83
2023-05-25T00:15:41.786Z,33.85
2023-05-25T00:17:44.264Z,19.23
2023-05-25T00:19:46.141Z,18.52
2023-05-25T00:21:48.757Z,21.27
2023-05-25T00:25:52.677Z,23.98
2023-05-25T00:27:54.527Z,21.95
2023-05-25T00:29:56.527Z,23.20
2023-05-25T00:31:58.435Z,19.10
2023-05-25T00:34:00.726Z,23.10
2023-05-25T00:36:03.564Z,22.98
2023-05-25T00:38:05.523Z,19.13
2023-05-25T00:40:08.980Z,21.90
2023-05-25T00:42:10.915Z,18.77
2023-05-25T00:44:16.028Z,21.85
2023-05-25T00:46:17.919Z,19.08
2023-05-25T00:48:19.943Z,20.20
2023-05-25T00:50:30.487Z,21.73
2023-05-25T00:52:32.399Z,20.70
2023-05-25T00:54:35.362Z,20.65
2023-05-25T00:56:38.933Z,18.70
2023-05-25T00:58:43.895Z,17.30
2023-05-25T01:00:46.120Z,18.90
2023-05-25T01:02:48.497Z,23.20
2023-05-25T01:04:59.865Z,20.25
2023-05-25T01:07:01.953Z,22.05
2023-05-25T01:09:04.747Z,18.05
2023-05-25T01:11:06.606Z,18.13
2023-05-25T01:13:09.433Z,24.60
2023-05-25T01:15:11.497Z,23.38
2023-05-25T01:17:14.124Z,18.63
2023-05-25T01:19:16.062Z,21.52
2023-05-25T01:21:27.173Z,19.63
2023-05-25T01:23:33.077Z,21.05
2023-05-25T01:25:38.060Z,19.27
2023-05-25T01:28:00.140Z,22.55
2023-05-25T01:30:02.124Z,23.38
2023-05-25T01:32:04.519Z,23.50
2023-05-25T01:34:06.438Z,24.98
2023-05-25T01:36:08.296Z,23.85
2023-05-25T01:38:10.258Z,15.80
2023-05-25T01:40:13.341Z,23.45
2023-05-25T01:42:15.252Z,18.67
2023-05-25T01:44:17.155Z,18.23
2023-05-25T01:46:29.320Z,18.48
2023-05-25T01:48:49.834Z,20.95
2023-05-25T01:51:02.635Z,17.55
2023-05-25T01:53:13.795Z,20.33
2023-05-25T01:55:16.301Z,16.70
2023-05-25T01:57:18.723Z,20.35
2023-05-25T01:59:21.753Z,21.08
2023-05-25T02:01:23.713Z,19.23
2023-05-25T02:03:25.672Z,16.13
2023-05-25T02:05:28.243Z,19.13
2023-05-25T02:07:30.130Z,20.30
2023-05-25T02:09:32.045Z,18.73
2023-05-25T02:11:33.974Z,17.52
2023-05-25T02:13:35.927Z,18.77
2023-05-25T02:15:37.835Z,16.35
2023-05-25T02:17:39.776Z,20.45
2023-05-25T02:19:41.673Z,15.13
2023-05-25T02:21:43.565Z,17.00
2023-05-25T02:23:46.460Z,13.73
2023-05-25T02:25:48.315Z,17.00
2023-05-25T02:27:50.648Z,15.60
2023-05-25T02:29:53.751Z,22.20
2023-05-25T02:31:56.274Z,14.50
2023-05-25T02:33:58.247Z,20.83
2023-05-25T02:36:00.215Z,14.85
2023-05-25T02:38:02.074Z,19.23
2023-05-25T02:40:05.218Z,18.97
2023-05-25T02:42:07.213Z,20.33
2023-05-25T02:44:09.085Z,17.95
2023-05-25T02:46:10.961Z,23.60
2023-05-25T02:48:12.971Z,19.42
2023-05-25T02:50:14.833Z,17.95
2023-05-25T02:52:16.679Z,25.95
2023-05-25T02:54:18.747Z,20.65
2023-05-25T02:56:22.860Z,19.98
2023-05-25T02:58:24.711Z,20.08
2023-05-25T03:00:26.756Z,19.88
2023-05-25T03:02:29.146Z,14.95
2023-05-25T03:04:34.079Z,20.65
2023-05-25T03:06:36.754Z,18.15
2023-05-25T03:08:39.370Z,17.70
2023-05-25T03:10:41.291Z,18.13
2023-05-25T03:12:43.153Z,21.60
2023-05-25T03:14:45.024Z,16.77
2023-05-25T03:16:47.039Z,21.37
2023-05-25T03:18:49.117Z,17.38
2023-05-25T03:20:50.978Z,18.50
2023-05-25T03:22:52.799Z,18.92
2023-05-25T03:24:54.649Z,16.53
2023-05-25T03:26:56.565Z,18.43
2023-05-25T03:28:58.428Z,20.95
2023-05-25T03:31:01.512Z,20.50
2023-05-25T03:33:03.513Z,17.27
2023-05-25T03:35:06.185Z,21.20
2023-05-25T03:37:08.499Z,23.73
2023-05-25T03:39:10.365Z,17.77
2023-05-25T03:41:12.230Z,16.48
2023-05-25T03:43:14.105Z,17.33
2023-05-25T03:45:16.055Z,15.93
2023-05-25T03:47:17.958Z,16.25
2023-05-25T03:49:19.852Z,25.92
2023-05-25T03:51:21.723Z,17.75
2023-05-25T03:53:23.640Z,18.52
2023-05-25T03:55:25.510Z,15.90
2023-05-25T03:57:28.199Z,16.55
2023-05-25T04:01:31.976Z,21.17
2023-05-25T04:03:34.190Z,14.13
2023-05-25T04:05:37.059Z,17.25
2023-05-25T04:09:40.747Z,15.70
2023-05-25T04:11:47.060Z,15.98
2023-05-25T04:13:48.937Z,21.13
2023-05-25T04:15:51.264Z,18.75
2023-05-25T04:17:53.289Z,19.45
2023-05-25T04:19:55.944Z,15.95
2023-05-25T04:21:57.841Z,16.83
2023-05-25T04:23:59.706Z,17.10
2023-05-25T04:26:01.665Z,16.50
2023-05-25T04:28:03.660Z,16.45
2023-05-25T04:30:06.262Z,18.48
2023-05-25T04:32:09.710Z,15.60
2023-05-25T04:34:11.962Z,19.88
2023-05-25T04:36:16.653Z,19.45
2023-05-25T04:38:18.517Z,18.30
2023-05-25T04:40:21.875Z,15.23
2023-05-25T04:42:24.157Z,17.15
2023-05-25T04:44:26.043Z,16.45
2023-05-25T04:46:28.031Z,17.73
2023-05-25T04:48:32.651Z,16.67
2023-05-25T04:50:34.598Z,20.40
2023-05-25T04:52:36.747Z,18.50
2023-05-25T04:54:38.637Z,17.38
2023-05-25T04:56:40.548Z,18.58
2023-05-25T04:58:42.410Z,20.00
2023-05-25T05:00:44.459Z,22.92
2023-05-25T05:02:46.775Z,13.93
2023-05-25T05:04:52.507Z,12.32
2023-05-25T05:06:56.136Z,17.20
2023-05-25T05:09:00.416Z,22.42
2023-05-25T05:11:02.340Z,17.33
2023-05-25T05:13:04.280Z,16.80
2023-05-25T05:15:06.607Z,16.88
2023-05-25T05:17:08.537Z,17.25
2023-05-25T05:19:10.499Z,15.77
2023-05-25T05:21:12.383Z,14.15
2023-05-25T05:23:14.360Z,12.95
2023-05-25T05:25:16.270Z,15.27
2023-05-25T05:27:19.029Z,17.50
2023-05-25T05:29:20.878Z,17.25
2023-05-25T05:31:24.318Z,23.98
2023-05-25T05:33:26.440Z,15.43
2023-05-25T05:35:28.367Z,17.10
2023-05-25T05:37:30.358Z,19.73
2023-05-25T05:39:32.324Z,19.60
2023-05-25T05:41:34.217Z,16.02
2023-05-25T05:43:36.170Z,20.55
2023-05-25T05:45:38.068Z,18.65
2023-05-25T05:47:40.001Z,11.45
2023-05-25T05:49:42.162Z,16.90
2023-05-25T05:51:44.078Z,16.92
2023-05-25T05:53:46.490Z,16.20
2023-05-25T05:55:50.697Z,19.67
2023-05-25T05:57:53.669Z,18.85
2023-05-25T05:59:55.851Z,14.90
2023-05-25T06:01:57.756Z,17.35
2023-05-25T06:03:59.807Z,13.75
2023-05-25T06:06:01.830Z,13.85
2023-05-25T06:08:05.763Z,14.75
2023-05-25T06:10:08.608Z,13.70
2023-05-25T06:12:10.630Z,13.63
2023-05-25T06:14:12.517Z,15.50
2023-05-25T06:16:14.363Z,14.00
2023-05-25T06:18:16.290Z,15.33
2023-05-25T06:20:18.214Z,15.80
2023-05-25T06:22:20.134Z,15.27
2023-05-25T06:24:22.049Z,11.73
2023-05-25T06:26:24.357Z,16.95
2023-05-25T06:28:26.507Z,13.32
2023-05-25T06:30:28.442Z,25.10
2023-05-25T06:32:30.538Z,15.15
2023-05-25T06:34:32.522Z,14.07
2023-05-25T06:36:34.683Z,12.45
2023-05-25T06:38:36.751Z,13.57
2023-05-25T06:40:38.671Z,14.63
2023-05-25T06:42:40.625Z,18.60
2023-05-25T06:44:42.485Z,16.15
2023-05-25T06:46:44.430Z,11.18
2023-05-25T06:48:46.438Z,13.93
2023-05-25T06:50:48.491Z,14.27
2023-05-25T06:52:50.345Z,14.73
2023-05-25T06:54:52.203Z,13.18
2023-05-25T06:56:54.102Z,14.00
2023-05-25T06:58:56.010Z,11.10
2023-05-25T07:00:57.983Z,11.27
2023-05-25T07:02:59.904Z,16.75
2023-05-25T07:05:02.731Z,14.10
2023-05-25T07:07:04.765Z,15.52
2023-05-25T07:09:06.656Z,13.77
2023-05-25T07:11:12.478Z,14.65
2023-05-25T07:13:14.376Z,13.18
2023-05-25T07:15:16.551Z,15.82
2023-05-25T07:17:18.438Z,15.45
2023-05-25T07:19:20.322Z,11.85
2023-05-25T07:21:22.257Z,13.98
2023-05-25T07:23:24.111Z,16.05
2023-05-25T07:26:45.818Z,10.38
2023-05-25T07:28:48.195Z,15.38
2023-05-25T07:30:50.043Z,14.27
2023-05-25T07:32:51.949Z,22.57
2023-05-25T07:34:54.432Z,18.50
2023-05-25T07:36:56.322Z,16.00
2023-05-25T07:38:58.441Z,10.40
2023-05-25T07:41:00.393Z,12.45
2023-05-25T07:45:06.604Z,9.23
2023-05-25T07:47:08.767Z,21.08
2023-05-25T07:49:16.399Z,16.83
2023-05-25T07:51:18.502Z,13.85
2023-05-25T07:53:21.599Z,12.68
2023-05-25T07:55:23.666Z,14.25
2023-05-25T07:57:25.981Z,13.23
2023-05-25T07:59:28.032Z,13.60
2023-05-25T08:01:30.174Z,10.45
2023-05-25T08:03:48.275Z,11.18
2023-05-25T08:05:52.105Z,12.45
2023-05-25T08:07:54.726Z,13.30
2023-05-25T08:12:18.703Z,12.45
2023-05-25T08:14:21.106Z,9.85
2023-05-25T08:16:23.200Z,11.90
2023-05-25T08:18:25.293Z,12.05
2023-05-25T08:20:28.145Z,11.90
2023-05-25T08:22:30.321Z,13.02
2023-05-25T08:24:32.341Z,12.05
2023-05-25T08:26:52.854Z,14.23
2023-05-25T08:28:56.527Z,8.57
2023-05-25T08:30:58.782Z,10.65
2023-05-25T08:33:01.049Z,8.88
2023-05-25T08:35:03.694Z,13.32
2023-05-25T08:39:08.500Z,11.13
2023-05-25T08:41:10.551Z,10.75
2023-05-25T08:43:12.604Z,8.95
2023-05-25T08:45:30.436Z,9.30
2023-05-25T08:47:39.094Z,7.78
2023-05-25T08:49:41.857Z,9.35
2023-05-25T08:51:49.902Z,14.90
2023-05-25T08:53:51.961Z,7.63
2023-05-25T08:55:54.756Z,9.20
2023-05-25T08:58:24.104Z,7.20
2023-05-25T09:00:29.273Z,8.25
2023-05-25T09:02:51.301Z,7.35
2023-05-25T09:04:53.488Z,5.03
2023-05-25T09:07:09.042Z,9.13
2023-05-25T09:09:12.678Z,6.70
2023-05-25T09:11:17.395Z,8.80
2023-05-25T09:13:22.497Z,9.57
2023-05-25T09:15:25.162Z,5.55
2023-05-25T09:17:27.400Z,7.70
2023-05-25T09:19:29.544Z,12.73
2023-05-25T09:21:31.729Z,8.27
2023-05-25T09:23:35.563Z,8.07
2023-05-25T09:25:37.596Z,9.82
2023-05-25T09:27:39.730Z,7.97
2023-05-25T09:29:41.796Z,5.93
2023-05-25T09:31:44.006Z,9.32
2023-05-25T09:33:46.602Z,7.60
2023-05-25T09:37:50.787Z,6.95
2023-05-25T09:39:52.952Z,7.18
2023-05-25T09:41:54.998Z,8.13
2023-05-25T09:44:06.489Z,7.28
2023-05-25T09:46:13.480Z,15.60
2023-05-25T09:48:15.692Z,9.90
2023-05-25T09:50:18.100Z,5.72
2023-05-25T09:52:20.912Z,7.40
2023-05-25T09:54:23.364Z,7.55
2023-05-25T09:56:26.557Z,7.15
2023-05-25T09:58:28.655Z,6.10
2023-05-25T10:00:30.961Z,6.90
2023-05-25T10:02:33.042Z,8.05
2023-05-25T10:04:35.212Z,6.47
2023-05-25T10:06:38.769Z,5.53
2023-05-25T10:08:41.302Z,5.40
2023-05-25T10:12:46.053Z,4.63
2023-05-25T10:14:49.848Z,6.03
2023-05-25T10:16:53.742Z,4.85
2023-05-25T10:19:06.399Z,6.70
2023-05-25T10:21:08.641Z,6.03
2023-05-25T10:23:12.596Z,4.30
2023-05-25T10:25:35.314Z,5.60
2023-05-25T10:27:43.197Z,16.58
2023-05-25T10:29:47.915Z,9.23
2023-05-25T10:31:49.976Z,5.72
2023-05-25T10:33:52.708Z,7.38
2023-05-25T10:36:03.149Z,6.72
2023-05-25T10:38:12.904Z,12.07
2023-05-25T10:40:15.313Z,8.20
2023-05-25T10:44:20.995Z,13.50
2023-05-25T10:46:23.156Z,6.30
2023-05-25T10:48:38.793Z,8.25
2023-05-25T10:50:41.078Z,6.22
2023-05-25T10:52:43.120Z,8.35
2023-05-25T10:54:45.273Z,6.30
2023-05-25T10:57:14.279Z,5.55
2023-05-25T10:59:16.408Z,9.35
2023-05-25T11:01:18.499Z,4.95
2023-05-25T11:03:20.837Z,9.20
2023-05-25T11:05:31.150Z,6.85
2023-05-25T11:07:33.196Z,5.22
2023-05-25T11:09:38.831Z,7.40
2023-05-25T11:11:43.881Z,6.55
2023-05-25T11:13:47.342Z,6.78
2023-05-25T11:16:29.563Z,9.30
2023-05-25T11:18:38.573Z,8.07
2023-05-25T11:20:41.855Z,8.07
2023-05-25T11:22:44.864Z,4.75
2023-05-25T11:24:56.125Z,8.18
2023-05-25T11:27:01.585Z,8.45
2023-05-25T11:29:14.987Z,5.25
2023-05-25T11:31:17.857Z,4.50
2023-05-25T11:33:22.378Z,8.10
2023-05-25T11:35:26.601Z,6.07
2023-05-25T11:37:29.136Z,9.40
2023-05-25T11:39:34.184Z,5.60
2023-05-25T11:41:36.512Z,7.07
2023-05-25T11:43:38.588Z,6.72
2023-05-25T11:45:41.526Z,5.70
2023-05-25T11:47:43.776Z,7.15
2023-05-25T11:49:47.380Z,4.78
2023-05-25T11:51:49.398Z,9.30
2023-05-25T11:53:51.751Z,10.30
2023-05-25T11:58:09.888Z,5.13
2023-05-25T12:00:13.643Z,4.70
2023-05-25T12:02:15.859Z,4.60
2023-05-25T12:04:17.995Z,7.05
2023-05-25T12:06:36.797Z,7.35
2023-05-25T12:08:39.115Z,5.47
2023-05-25T12:10:52.134Z,7.88
2023-05-25T12:12:58.386Z,4.75
2023-05-25T12:15:00.541Z,5.68
2023-05-25T12:17:02.692Z,5.60
2023-05-25T12:19:05.032Z,4.72
2023-05-25T12:21:08.396Z,4.68
2023-05-25T12:23:10.504Z,7.55
2023-05-25T12:25:13.308Z,4.30
2023-05-25T12:27:19.233Z,6.40
2023-05-25T12:29:21.405Z,12.85
2023-05-25T12:31:24.440Z,5.50
2023-05-25T12:33:26.607Z,5.88
2023-05-25T12:35:29.528Z,3.08
2023-05-25T12:37:31.715Z,5.47
2023-05-25T12:39:35.383Z,4.88
2023-05-25T12:41:54.264Z,8.18
2023-05-25T12:43:57.830Z,5.72
2023-05-25T12:46:00.171Z,5.00
2023-05-25T12:50:13.453Z,5.28
2023-05-25T12:52:35.508Z,5.75
2023-05-25T12:54:42.222Z,8.13
2023-05-25T12:56:59.713Z,5.57
2023-05-25T12:59:15.329Z,5.28
2023-05-25T13:01:17.395Z,3.90
2023-05-25T13:03:20.208Z,5.28
2023-05-25T13:05:27.219Z,5.45
2023-05-25T13:07:30.218Z,9.00
2023-05-25T13:09:33.051Z,5.85
2023-05-25T13:11:35.096Z,5.30
2023-05-25T13:13:37.500Z,6.22
2023-05-25T13:17:45.102Z,5.35
2023-05-25T13:19:47.168Z,6.03
2023-05-25T13:21:52.446Z,5.05
2023-05-25T13:23:54.782Z,6.55
2023-05-25T13:28:01.117Z,4.80
2023-05-25T13:30:07.064Z,9.10
2023-05-25T13:32:09.236Z,8.05
2023-05-25T13:36:15.425Z,5.75
2023-05-25T13:38:17.684Z,8.07
2023-05-25T13:40:19.753Z,5.07
2023-05-25T13:42:21.969Z,5.57
2023-05-25T13:44:24.023Z,8.98
2023-05-25T13:46:34.822Z,8.80
2023-05-25T13:48:37.530Z,6.65
2023-05-25T13:52:41.616Z,5.85
2023-05-25T13:54:43.693Z,3.83
2023-05-25T13:56:45.844Z,5.28
2023-05-25T13:58:48.081Z,4.70
2023-05-25T14:00:50.185Z,4.78
2023-05-25T14:02:52.322Z,4.13
2023-05-25T14:04:55.183Z,5.03
2023-05-25T14:06:57.243Z,4.10
2023-05-25T14:08:59.302Z,5.05
2023-05-25T14:11:01.552Z,5.85
2023-05-25T14:13:03.620Z,13.77
2023-05-25T14:15:07.007Z,4.13
2023-05-25T14:17:09.051Z,6.80
2023-05-25T14:19:11.326Z,4.47
2023-05-25T14:21:13.447Z,5.43
2023-05-25T14:23:18.483Z,4.18
2023-05-25T14:25:20.861Z,10.55
2023-05-25T14:27:23.069Z,5.75
2023-05-25T14:29:25.116Z,5.50
2023-05-25T14:31:27.217Z,7.15
2023-05-25T14:33:29.309Z,3.85
2023-05-25T14:35:31.437Z,3.53
2023-05-25T14:37:33.523Z,4.97
2023-05-25T14:39:36.416Z,4.50
2023-05-25T14:41:38.452Z,4.85
2023-05-25T14:43:40.520Z,3.85
2023-05-25T14:45:42.667Z,5.93
2023-05-25T14:47:44.852Z,4.43
2023-05-25T14:49:46.936Z,6.40
2023-05-25T14:51:49.012Z,6.38
2023-05-25T14:53:51.265Z,6.82
2023-05-25T14:55:53.296Z,4.55
2023-05-25T14:57:55.502Z,5.32
2023-05-25T14:59:57.634Z,5.20
2023-05-25T15:01:59.750Z,4.80
2023-05-25T15:04:01.917Z,8.57
2023-05-25T15:06:04.192Z,6.22
2023-05-25T15:08:06.254Z,4.55
2023-05-25T15:10:08.907Z,6.75
2023-05-25T15:12:11.112Z,7.90
2023-05-25T15:14:13.188Z,5.60
2023-05-25T15:16:16.230Z,5.22
2023-05-25T15:18:18.420Z,8.35
2023-05-25T15:20:20.616Z,7.63
2023-05-25T15:22:22.746Z,5.85
2023-05-25T15:24:24.818Z,6.53
2023-05-25T15:26:26.903Z,6.35
2023-05-25T15:28:29.036Z,8.20
2023-05-25T15:30:33.249Z,6.35
2023-05-25T15:32:35.429Z,3.70
2023-05-25T15:34:37.506Z,11.35
2023-05-25T15:36:39.590Z,5.80
2023-05-25T15:38:43.363Z,8.75
2023-05-25T15:40:45.591Z,5.32
2023-05-25T15:42:47.622Z,6.68
2023-05-25T15:44:49.697Z,6.85
2023-05-25T15:46:51.804Z,10.40
2023-05-25T15:48:54.441Z,7.00
2023-05-25T15:50:56.539Z,12.10
2023-05-25T15:52:58.615Z,5.93
2023-05-25T15:55:00.845Z,4.35
2023-05-25T15:57:02.888Z,6.10
2023-05-25T15:59:05.125Z,7.78
2023-05-25T16:01:07.193Z,8.85
2023-05-25T16:03:09.261Z,7.97
2023-05-25T16:05:11.302Z,8.80
2023-05-25T16:07:14.280Z,4.93
2023-05-25T16:09:17.024Z,7.15
2023-05-25T16:11:19.397Z,5.70
2023-05-25T16:15:23.788Z,6.70
2023-05-25T16:17:26.486Z,8.38
2023-05-25T16:19:28.535Z,10.82
2023-05-25T16:21:30.753Z,8.88
2023-05-25T16:23:32.792Z,7.40
2023-05-25T16:25:34.877Z,5.88
2023-05-25T16:27:37.045Z,8.40
2023-05-25T16:29:39.123Z,6.38
2023-05-25T16:31:41.178Z,9.57
2023-05-25T16:33:45.526Z,6.00
2023-05-25T16:35:47.845Z,8.55
2023-05-25T16:39:51.860Z,9.85
2023-05-25T16:41:54.003Z,5.95
2023-05-25T16:43:56.171Z,7.40
2023-05-25T16:45:58.289Z,7.25
2023-05-25T16:48:00.552Z,7.68
2023-05-25T16:50:02.684Z,9.77
2023-05-25T16:52:05.285Z,11.15
2023-05-25T16:54:07.399Z,8.65
2023-05-25T16:56:09.598Z,6.20
2023-05-25T16:58:11.645Z,14.52
2023-05-25T17:00:14.378Z,7.40
2023-05-25T17:02:16.462Z,8.85
2023-05-25T17:04:18.614Z,7.97
2023-05-25T17:06:20.763Z,9.02
2023-05-25T17:08:22.852Z,6.97
2023-05-25T17:10:24.908Z,5.03
2023-05-25T17:12:27.027Z,6.00
2023-05-25T17:14:29.285Z,10.27
2023-05-25T17:16:31.341Z,8.75
2023-05-25T17:18:33.540Z,5.35
2023-05-25T17:20:35.774Z,5.53
2023-05-25T17:22:38.553Z,6.57
2023-05-25T17:24:40.624Z,12.55
2023-05-25T17:26:42.632Z,7.82
2023-05-25T17:28:44.740Z,9.63
2023-05-25T17:30:48.474Z,7.05
2023-05-25T17:32:51.165Z,6.20
2023-05-25T17:36:55.257Z,5.15
2023-05-25T17:38:57.329Z,6.13
2023-05-25T17:40:59.395Z,6.20
2023-05-25T17:43:01.472Z,7.55
2023-05-25T17:45:03.637Z,5.85
2023-05-25T17:47:09.169Z,5.15
2023-05-25T17:49:13.045Z,5.20
2023-05-25T17:51:15.229Z,8.43
2023-05-25T17:53:17.409Z,10.32
2023-05-25T17:55:20.770Z,6.07
2023-05-25T17:57:22.936Z,8.68
2023-05-25T17:59:24.978Z,5.30
2023-05-25T18:01:27.178Z,7.78
2023-05-25T18:03:29.620Z,6.65
2023-05-25T18:05:31.779Z,5.25
2023-05-25T18:07:33.910Z,5.70
2023-05-25T18:09:35.999Z,4.80
2023-05-25T18:11:38.121Z,10.00
2023-05-25T18:13:40.401Z,7.63
2023-05-25T18:15:42.759Z,6.80
2023-05-25T18:17:44.979Z,5.53
2023-05-25T18:19:47.358Z,6.68
2023-05-25T18:21:49.435Z,7.45
2023-05-25T18:23:51.591Z,6.75
2023-05-25T18:25:53.748Z,13.23
2023-05-25T18:27:55.913Z,7.30
2023-05-25T18:29:58.984Z,10.50
2023-05-25T18:32:01.028Z,12.80
2023-05-25T18:34:03.082Z,6.35
2023-05-25T18:36:05.628Z,5.57
2023-05-25T18:40:12.904Z,6.80
2023-05-25T18:42:14.996Z,11.88
2023-05-25T18:44:17.094Z,7.20
2023-05-25T18:46:19.668Z,7.13
2023-05-25T18:50:25.835Z,7.93
2023-05-25T18:52:27.925Z,11.48
2023-05-25T18:54:30.010Z,8.05
2023-05-25T18:56:32.058Z,11.68
2023-05-25T18:58:34.089Z,8.75
2023-05-25T19:00:36.198Z,8.73
2023-05-25T19:02:38.886Z,9.63
2023-05-25T19:04:41.130Z,9.27
2023-05-25T19:06:43.158Z,6.63
2023-05-25T19:08:45.204Z,13.65
2023-05-25T19:10:47.266Z,10.35
2023-05-25T19:12:49.335Z,10.40
2023-05-25T19:14:51.394Z,7.45
2023-05-25T19:16:53.473Z,9.32
2023-05-25T19:18:55.651Z,8.68
2023-05-25T19:20:58.464Z,10.23
2023-05-25T19:23:00.739Z,6.38
2023-05-25T19:25:02.865Z,7.18
2023-05-25T19:27:05.657Z,11.00
2023-05-25T19:29:07.748Z,8.40
2023-05-25T19:31:09.862Z,5.80
2023-05-25T19:33:12.054Z,8.25
2023-05-25T19:35:14.122Z,11.57
2023-05-25T19:37:16.394Z,8.00
2023-05-25T19:39:18.695Z,6.45
2023-05-25T19:41:21.399Z,6.68
2023-05-25T19:43:23.601Z,9.15
2023-05-25T19:45:25.776Z,7.68
2023-05-25T19:47:27.840Z,9.68
2023-05-25T19:49:29.911Z,12.25
2023-05-25T19:51:33.051Z,12.77
2023-05-25T19:53:35.163Z,5.82
2023-05-25T19:55:37.853Z,10.48
2023-05-25T19:59:42.017Z,9.48
2023-05-25T20:01:44.296Z,11.27
2023-05-25T20:03:46.625Z,10.38
2023-05-25T20:05:48.832Z,8.25
2023-05-25T20:07:52.418Z,9.85
2023-05-25T20:09:54.453Z,6.57
2023-05-25T20:11:58.184Z,5.15
2023-05-25T20:14:00.247Z,9.48
2023-05-25T20:16:02.416Z,6.68
2023-05-25T20:18:04.571Z,7.90
2023-05-25T20:20:07.334Z,13.18
2023-05-25T20:22:09.530Z,8.48
2023-05-25T20:24:11.621Z,10.75
2023-05-25T20:26:13.694Z,7.20
2023-05-25T20:28:16.000Z,13.57
2023-05-25T20:30:18.107Z,9.05
2023-05-25T20:32:20.242Z,11.82
2023-05-25T20:34:22.346Z,10.45
2023-05-25T20:36:24.466Z,9.40
2023-05-25T20:38:26.530Z,10.82
2023-05-25T20:40:28.583Z,8.80
2023-05-25T20:42:30.636Z,10.85
2023-05-25T20:44:33.085Z,10.45
2023-05-25T20:46:36.472Z,11.20
2023-05-25T20:48:39.418Z,15.45
2023-05-25T20:50:41.469Z,8.82
2023-05-25T20:52:43.550Z,14.93
2023-05-25T20:54:45.696Z,8.98
2023-05-25T20:56:48.380Z,9.35
2023-05-25T21:00:52.577Z,12.73
2023-05-25T21:02:54.766Z,13.18
2023-05-25T21:04:56.957Z,13.23
2023-05-25T21:06:58.994Z,9.70
2023-05-25T21:09:01.658Z,8.77
2023-05-25T21:13:05.842Z,12.00
2023-05-25T21:15:08.514Z,9.15
2023-05-25T21:19:12.782Z,12.48
2023-05-25T21:21:15.925Z,11.73
2023-05-25T21:23:18.082Z,8.48
2023-05-25T21:25:20.578Z,9.38
2023-05-25T21:27:22.648Z,12.32
2023-05-25T21:29:24.919Z,8.38
2023-05-25T21:31:27.045Z,13.40
2023-05-25T21:33:30.963Z,12.18
2023-05-25T21:35:33.028Z,11.07
2023-05-25T21:37:35.166Z,16.42
2023-05-25T21:39:37.232Z,10.85
2023-05-25T21:41:41.338Z,11.35
2023-05-25T21:43:43.479Z,14.23
2023-05-25T21:45:45.857Z,10.15
2023-05-25T21:47:48.251Z,10.90
2023-05-25T21:49:50.583Z,16.40
2023-05-25T21:51:52.621Z,13.85
2023-05-25T21:53:54.635Z,12.80
2023-05-25T21:55:56.692Z,11.38
2023-05-25T21:57:58.814Z,12.57
2023-05-25T22:00:01.005Z,7.90
2023-05-25T22:02:03.128Z,14.32
2023-05-25T22:04:05.206Z,17.10
2023-05-25T22:06:07.457Z,14.15
2023-05-25T22:08:09.508Z,10.68
2023-05-25T22:10:11.682Z,15.15
2023-05-25T22:12:13.824Z,11.48
2023-05-25T22:14:15.935Z,14.82
2023-05-25T22:16:18.090Z,12.15
2023-05-25T22:18:20.289Z,8.10
2023-05-25T22:20:22.356Z,11.77
2023-05-25T22:22:24.428Z,14.52
2023-05-25T22:24:26.492Z,16.15
2023-05-25T22:26:29.305Z,11.77
2023-05-25T22:30:33.524Z,10.05
2023-05-25T22:32:35.694Z,17.55
2023-05-25T22:34:37.772Z,13.52
2023-05-25T22:36:39.840Z,12.30
2023-05-25T22:38:42.135Z,12.70
2023-05-25T22:40:47.580Z,13.65
2023-05-25T22:42:50.496Z,15.20
2023-05-25T22:44:52.828Z,19.23
2023-05-25T22:46:55.022Z,19.10
2023-05-25T22:48:57.187Z,15.05
2023-05-25T22:50:59.253Z,12.75
2023-05-25T22:53:01.580Z,12.93
2023-05-25T22:55:03.908Z,18.58
2023-05-25T22:57:06.869Z,17.38
2023-05-25T22:59:08.923Z,11.63
2023-05-25T23:01:11.089Z,19.58
2023-05-25T23:03:13.317Z,11.13
2023-05-25T23:05:15.590Z,16.55
2023-05-25T23:07:17.693Z,10.43
2023-05-25T23:09:19.722Z,21.52
2023-05-25T23:11:21.822Z,10.57
2023-05-25T23:13:24.358Z,14.02
2023-05-25T23:15:26.483Z,15.65
2023-05-25T23:17:28.579Z,15.52
2023-05-25T23:19:30.657Z,14.63
2023-05-25T23:21:33.738Z,14.18
2023-05-25T23:23:36.197Z,15.30
2023-05-25T23:25:38.339Z,16.65
2023-05-25T23:27:40.559Z,17.73
2023-05-25T23:29:42.671Z,14.35
2023-05-25T23:31:44.780Z,13.35
2023-05-25T23:33:46.866Z,17.35
2023-05-25T23:35:48.887Z,12.70
2023-05-25T23:37:52.125Z,17.20
2023-05-25T23:39:54.267Z,15.70
2023-05-25T23:41:56.569Z,11.57
2023-05-25T23:43:58.682Z,14.55
2023-05-25T23:46:01.318Z,21.10
2023-05-25T23:50:06.221Z,19.88
2023-05-25T23:54:10.479Z,12.98
2023-05-25T23:56:12.530Z,18.27
2023-05-25T23:58:14.610Z,12.13
